createdAt,value
2023-01-13T00:00:15.579Z,101195.92
2023-01-13T00:02:42.345Z,101192.73
2023-01-13T00:05:10.343Z,101186.18
2023-01-13T00:07:38.395Z,101186.10
2023-01-13T00:10:05.697Z,101186.32
2023-01-13T00:12:32.361Z,101180.48
2023-01-13T00:14:58.962Z,101179.48
2023-01-13T00:17:25.624Z,101176.08
2023-01-13T00:19:52.329Z,101180.18
2023-01-13T00:22:19.038Z,101178.58
2023-01-13T00:24:45.648Z,101172.57
2023-01-13T00:27:12.304Z,101178.71
2023-01-13T00:29:38.903Z,101182.86
2023-01-13T00:32:05.618Z,101182.92
2023-01-13T00:34:32.285Z,101181.78
2023-01-13T00:36:58.969Z,101184.95
2023-01-13T00:39:25.620Z,101182.80
2023-01-13T00:42:10.740Z,101182.40
2023-01-13T00:44:37.350Z,101181.95
2023-01-13T00:47:03.998Z,101179.75
2023-01-13T00:49:30.695Z,101182.17
2023-01-13T00:51:57.293Z,101184.15
2023-01-13T00:54:24.013Z,101181.40
2023-01-13T00:56:50.606Z,101187.33
2023-01-13T00:59:17.258Z,101188.02
2023-01-13T01:01:44.109Z,101187.23
2023-01-13T01:04:11.292Z,101187.17
2023-01-13T01:06:38.085Z,101193.05
2023-01-13T01:09:05.598Z,101196.27
2023-01-13T01:11:33.093Z,101193.36
2023-01-13T01:14:02.508Z,101192.08
2023-01-13T01:16:31.121Z,101193.11
2023-01-13T01:18:58.471Z,101194.77
2023-01-13T01:21:27.261Z,101192.23
2023-01-13T01:23:54.844Z,101183.57
2023-01-13T01:26:24.306Z,101183.27
2023-01-13T01:28:51.045Z,101185.91
2023-01-13T01:31:20.675Z,101175.23
2023-01-13T01:33:47.686Z,101171.41
2023-01-13T01:36:17.128Z,101175.78
2023-01-13T01:38:44.808Z,101173.38
2023-01-13T01:41:15.744Z,101166.63
2023-01-13T01:44:02.324Z,101164.92
2023-01-13T01:46:43.526Z,101161.25
2023-01-13T01:49:33.657Z,101152.95
2023-01-13T01:52:12.305Z,101148.34
2023-01-13T01:54:54.530Z,101145.28
2023-01-13T01:57:33.199Z,101144.67
2023-01-13T02:00:01.191Z,101139.35
2023-01-13T02:02:30.596Z,101137.66
2023-01-13T02:04:58.092Z,101139.27
2023-01-13T02:07:28.748Z,101140.27
2023-01-13T02:09:57.823Z,101133.61
2023-01-13T02:12:34.764Z,101135.31
2023-01-13T02:15:10.790Z,101137.54
2023-01-13T02:17:58.992Z,101136.41
2023-01-13T02:20:50.769Z,101130.54
2023-01-13T02:23:57.767Z,101129.92
2023-01-13T02:27:02.383Z,101130.39
2023-01-13T02:30:09.902Z,101125.39
2023-01-13T02:32:55.579Z,101119.70
2023-01-13T02:35:35.703Z,101119.80
2023-01-13T02:38:03.438Z,101115.23
2023-01-13T02:40:37.905Z,101108.33
2023-01-13T02:43:30.133Z,101108.25
2023-01-13T02:46:03.378Z,101103.86
2023-01-13T02:48:31.732Z,101100.98
2023-01-13T02:51:05.809Z,101098.82
2023-01-13T02:53:45.907Z,101097.52
2023-01-13T02:56:15.171Z,101093.79
2023-01-13T02:58:45.375Z,101089.05
2023-01-13T03:01:12.072Z,101077.67
2023-01-13T03:03:38.762Z,101069.57
2023-01-13T03:06:47.631Z,101071.78
2023-01-13T03:09:33.017Z,101076.96
2023-01-13T03:12:10.638Z,101071.88
2023-01-13T03:14:56.636Z,101065.48
2023-01-13T03:17:39.976Z,101070.13
2023-01-13T03:20:18.893Z,101070.05
2023-01-13T03:23:01.588Z,101070.48
2023-01-13T03:25:43.449Z,101069.62
2023-01-13T03:28:22.468Z,101070.67
2023-01-13T03:30:59.494Z,101074.64
2023-01-13T03:33:31.362Z,101079.77
2023-01-13T03:36:04.288Z,101074.36
2023-01-13T03:38:36.834Z,101072.77
2023-01-13T03:41:09.676Z,101073.85
2023-01-13T03:44:20.777Z,101073.79
2023-01-13T03:46:57.292Z,101074.07
2023-01-13T03:49:29.484Z,101074.23
2023-01-13T03:51:59.191Z,101073.11
2023-01-13T03:54:30.054Z,101070.42
2023-01-13T03:57:02.376Z,101069.37
2023-01-13T03:59:33.311Z,101068.30
2023-01-13T04:02:11.991Z,101070.55
2023-01-13T04:04:44.319Z,101068.89
2023-01-13T04:07:14.424Z,101068.19
2023-01-13T04:09:56.941Z,101059.16
2023-01-13T04:12:50.132Z,101059.77
2023-01-13T04:15:18.802Z,101059.36
2023-01-13T04:17:45.433Z,101056.08
2023-01-13T04:20:12.976Z,101052.16
2023-01-13T04:22:39.555Z,101054.92
2023-01-13T04:25:06.821Z,101051.94
2023-01-13T04:27:33.500Z,101054.99
2023-01-13T04:30:00.151Z,101052.90
2023-01-13T04:32:26.819Z,101056.88
2023-01-13T04:34:53.411Z,101064.15
2023-01-13T04:37:20.004Z,101064.02
2023-01-13T04:39:46.667Z,101064.66
2023-01-13T04:42:13.342Z,101066.23
2023-01-13T04:44:39.911Z,101064.05
2023-01-13T04:47:06.574Z,101066.88
2023-01-13T04:49:33.273Z,101062.10
2023-01-13T04:52:00.023Z,101061.02
2023-01-13T04:54:26.595Z,101059.48
2023-01-13T04:56:53.185Z,101065.77
2023-01-13T04:59:19.778Z,101064.10
2023-01-13T05:01:46.403Z,101062.17
2023-01-13T05:04:15.486Z,101065.36
2023-01-13T05:06:42.081Z,101067.91
2023-01-13T05:09:08.663Z,101063.98
2023-01-13T05:11:54.036Z,101061.05
2023-01-13T05:14:39.552Z,101066.69
2023-01-13T05:17:09.074Z,101071.14
2023-01-13T05:19:40.815Z,101069.27
2023-01-13T05:22:26.246Z,101070.25
2023-01-13T05:25:11.567Z,101073.27
2023-01-13T05:27:38.245Z,101074.89
2023-01-13T05:30:05.800Z,101082.23
2023-01-13T05:32:32.474Z,101087.14
2023-01-13T05:34:59.399Z,101083.73
2023-01-13T05:37:27.027Z,101083.48
2023-01-13T05:40:13.227Z,101080.39
2023-01-13T05:42:58.744Z,101084.19
2023-01-13T05:45:25.641Z,101092.00
2023-01-13T05:47:52.264Z,101099.15
2023-01-13T05:50:19.008Z,101104.10
2023-01-13T05:52:45.684Z,101104.13
2023-01-13T05:55:12.458Z,101108.42
2023-01-13T05:57:39.006Z,101101.23
2023-01-13T06:00:06.086Z,101093.05
2023-01-13T06:02:38.500Z,101092.25
2023-01-13T06:05:05.341Z,101097.68
2023-01-13T06:07:32.007Z,101094.67
2023-01-13T06:09:58.659Z,101093.77
2023-01-13T06:12:25.243Z,101090.59
2023-01-13T06:14:51.822Z,101086.66
2023-01-13T06:17:18.784Z,101093.90
2023-01-13T06:19:45.399Z,101097.96
2023-01-13T06:22:16.681Z,101099.80
2023-01-13T06:24:45.967Z,101103.80
2023-01-13T06:27:13.093Z,101107.05
2023-01-13T06:29:39.764Z,101099.52
2023-01-13T06:32:13.174Z,101103.55
2023-01-13T06:34:42.594Z,101107.97
2023-01-13T06:37:12.478Z,101109.05
2023-01-13T06:39:39.497Z,101109.92
2023-01-13T06:42:25.815Z,101114.18
2023-01-13T06:44:53.733Z,101112.06
2023-01-13T06:47:22.524Z,101113.92
2023-01-13T06:49:49.261Z,101121.30
2023-01-13T06:52:16.007Z,101120.23
2023-01-13T06:54:42.607Z,101120.33
2023-01-13T06:57:09.280Z,101113.29
2023-01-13T06:59:35.911Z,101112.33
2023-01-13T07:02:03.236Z,101119.48
2023-01-13T07:04:29.936Z,101127.36
2023-01-13T07:06:56.610Z,101130.08
2023-01-13T07:09:23.456Z,101120.76
2023-01-13T07:11:52.113Z,101118.54
2023-01-13T07:14:38.066Z,101123.50
2023-01-13T07:17:04.746Z,101125.66
2023-01-13T07:19:31.381Z,101131.92
2023-01-13T07:21:58.072Z,101127.61
2023-01-13T07:24:25.165Z,101118.98
2023-01-13T07:26:52.433Z,101121.27
2023-01-13T07:29:19.192Z,101118.48
2023-01-13T07:31:48.228Z,101121.95
2023-01-13T07:34:16.487Z,101121.92
2023-01-13T07:36:43.067Z,101124.88
2023-01-13T07:39:09.705Z,101120.61
2023-01-13T07:41:55.126Z,101131.85
2023-01-13T07:44:21.778Z,101132.71
2023-01-13T07:46:48.468Z,101133.86
2023-01-13T07:49:15.223Z,101144.01
2023-01-13T07:51:41.895Z,101142.52
2023-01-13T07:54:08.503Z,101140.80
2023-01-13T07:56:35.132Z,101144.47
2023-01-13T07:59:01.947Z,101147.84
2023-01-13T08:01:28.757Z,101150.16
2023-01-13T08:03:56.319Z,101155.26
2023-01-13T08:06:23.063Z,101155.83
2023-01-13T08:08:50.113Z,101143.44
2023-01-13T08:11:17.182Z,101143.14
2023-01-13T08:13:44.154Z,101149.23
2023-01-13T08:16:13.722Z,101152.77
2023-01-13T08:18:41.687Z,101152.45
2023-01-13T08:21:11.407Z,101148.91
2023-01-13T08:23:38.233Z,101150.19
2023-01-13T08:26:07.512Z,101153.67
2023-01-13T08:28:34.752Z,101151.92
2023-01-13T08:31:06.771Z,101145.86
2023-01-13T08:33:33.867Z,101156.30
2023-01-13T08:36:09.066Z,101149.91
2023-01-13T08:38:37.172Z,101150.14
2023-01-13T08:41:12.072Z,101152.65
2023-01-13T08:43:38.821Z,101145.52
2023-01-13T08:46:05.915Z,101142.41
2023-01-13T08:48:33.564Z,101145.80
2023-01-13T08:51:06.052Z,101143.02
2023-01-13T08:53:32.882Z,101142.82
2023-01-13T08:55:59.530Z,101136.02
2023-01-13T08:58:26.281Z,101141.61
2023-01-13T09:00:52.926Z,101140.45
2023-01-13T09:03:19.567Z,101141.73
2023-01-13T09:05:46.322Z,101141.66
2023-01-13T09:08:13.337Z,101138.83
2023-01-13T09:10:40.528Z,101138.72
2023-01-13T09:13:11.810Z,101133.80
2023-01-13T09:15:40.099Z,101135.93
2023-01-13T09:18:06.981Z,101136.90
2023-01-13T09:20:33.655Z,101138.66
2023-01-13T09:23:00.585Z,101144.15
2023-01-13T09:25:27.338Z,101155.66
2023-01-13T09:27:54.041Z,101164.17
2023-01-13T09:30:20.721Z,101158.88
2023-01-13T09:32:47.412Z,101158.19
2023-01-13T09:35:14.095Z,101165.41
2023-01-13T09:37:41.274Z,101163.98
2023-01-13T09:40:12.217Z,101163.48
2023-01-13T09:43:19.757Z,101170.40
2023-01-13T09:46:28.539Z,101170.84
2023-01-13T09:48:57.600Z,101152.69
2023-01-13T09:51:35.586Z,101143.98
2023-01-13T09:54:32.475Z,101135.72
2023-01-13T09:56:59.955Z,101127.54
2023-01-13T09:59:32.610Z,101123.22
2023-01-13T10:02:24.299Z,101118.65
2023-01-13T10:05:25.247Z,101115.83
2023-01-13T10:07:59.119Z,101117.63
2023-01-13T10:10:34.872Z,101111.23
2023-01-13T10:13:17.299Z,101101.98
2023-01-13T10:15:56.605Z,101105.92
2023-01-13T10:18:33.365Z,101102.75
2023-01-13T10:21:17.001Z,101101.84
2023-01-13T10:24:02.649Z,101094.16
2023-01-13T10:26:44.825Z,101089.05
2023-01-13T10:29:24.785Z,101088.27
2023-01-13T10:31:56.287Z,101089.96
2023-01-13T10:34:24.068Z,101088.79
2023-01-13T10:37:06.593Z,101085.34
2023-01-13T10:39:44.105Z,101083.45
2023-01-13T10:42:19.931Z,101083.54
2023-01-13T10:44:54.344Z,101080.48
2023-01-13T10:47:24.383Z,101078.05
2023-01-13T10:50:10.782Z,101078.50
2023-01-13T10:52:55.093Z,101081.67
2023-01-13T10:55:34.353Z,101074.39
2023-01-13T10:58:17.134Z,101068.71
2023-01-13T11:00:44.269Z,101066.85
2023-01-13T11:03:20.606Z,101064.61
2023-01-13T11:05:58.995Z,101062.08
2023-01-13T11:08:47.675Z,101061.86
2023-01-13T11:11:47.635Z,101059.72
2023-01-13T11:14:33.201Z,101046.66
2023-01-13T11:17:09.791Z,101048.21
2023-01-13T11:19:42.780Z,101044.57
2023-01-13T11:22:25.419Z,101049.34
2023-01-13T11:25:04.957Z,101042.28
2023-01-13T11:27:42.524Z,101033.08
2023-01-13T11:30:31.792Z,101030.13
2023-01-13T11:33:06.336Z,101031.46
2023-01-13T11:35:38.127Z,101031.48
2023-01-13T11:38:18.669Z,101033.39
2023-01-13T11:40:50.769Z,101039.08
2023-01-13T11:43:24.686Z,101040.11
2023-01-13T11:45:56.319Z,101039.70
2023-01-13T11:48:27.243Z,101039.50
2023-01-13T11:51:04.532Z,101030.73
2023-01-13T11:53:49.716Z,101031.75
2023-01-13T11:56:29.331Z,101032.58
2023-01-13T11:59:23.780Z,101023.36
2023-01-13T12:02:25.846Z,101028.35
2023-01-13T12:05:19.093Z,101027.88
2023-01-13T12:07:55.598Z,101018.52
2023-01-13T12:10:42.876Z,101017.31
2023-01-13T12:13:40.633Z,101012.80
2023-01-13T12:16:25.604Z,101009.19
2023-01-13T12:19:14.128Z,100997.59
2023-01-13T12:22:18.533Z,101002.66
2023-01-13T12:25:05.947Z,100999.21
2023-01-13T12:27:47.279Z,100993.06
2023-01-13T12:30:20.169Z,100992.17
2023-01-13T12:32:48.325Z,100985.33
2023-01-13T12:35:41.791Z,100980.71
2023-01-13T12:38:16.937Z,100978.67
2023-01-13T12:41:21.441Z,100978.42
2023-01-13T12:44:08.153Z,100972.09
2023-01-13T12:46:44.169Z,100966.67
2023-01-13T12:49:23.760Z,100959.49
2023-01-13T12:51:56.435Z,100957.43
2023-01-13T12:54:41.183Z,100960.71
2023-01-13T12:57:16.978Z,100966.79
2023-01-13T13:00:04.921Z,100960.66
2023-01-13T13:02:40.062Z,100954.37
2023-01-13T13:05:48.933Z,100950.92
2023-01-13T13:08:40.855Z,100949.18
2023-01-13T13:11:32.387Z,100945.27
2023-01-13T13:14:01.024Z,100937.16
2023-01-13T13:16:28.756Z,100941.94
2023-01-13T13:19:21.333Z,100952.56
2023-01-13T13:22:12.612Z,100943.73
2023-01-13T13:24:41.088Z,100944.64
2023-01-13T13:27:40.847Z,100940.19
2023-01-13T13:30:20.906Z,100939.07
2023-01-13T13:33:00.445Z,100935.08
2023-01-13T13:35:40.397Z,100938.80
2023-01-13T13:39:04.499Z,100944.20
2023-01-13T13:41:54.568Z,100945.70
2023-01-13T13:44:59.134Z,100940.65
2023-01-13T13:47:25.771Z,100938.27
2023-01-13T13:49:54.657Z,100938.81
2023-01-13T13:52:30.283Z,100932.98
2023-01-13T13:55:09.804Z,100939.34
2023-01-13T13:57:42.446Z,100938.08
2023-01-13T14:00:21.602Z,100933.69
2023-01-13T14:02:52.155Z,100927.26
2023-01-13T14:05:22.921Z,100924.36
2023-01-13T14:07:52.580Z,100925.92
2023-01-13T14:10:22.755Z,100924.30
2023-01-13T14:12:49.395Z,100920.05
2023-01-13T14:15:32.397Z,100921.02
2023-01-13T14:18:05.021Z,100920.91
2023-01-13T14:20:34.611Z,100925.39
2023-01-13T14:23:01.849Z,100931.30
2023-01-13T14:25:54.949Z,100933.92
2023-01-13T14:28:35.705Z,100934.81
2023-01-13T14:31:02.874Z,100938.48
2023-01-13T14:33:40.157Z,100943.16
2023-01-13T14:36:06.964Z,100943.75
2023-01-13T14:38:33.606Z,100952.81
2023-01-13T14:41:21.005Z,100951.16
2023-01-13T14:43:49.997Z,100941.21
2023-01-13T14:46:17.781Z,100944.98
2023-01-13T14:48:49.566Z,100945.19
2023-01-13T14:51:27.852Z,100943.30
2023-01-13T14:53:54.929Z,100941.05
2023-01-13T14:56:42.776Z,100946.98
2023-01-13T14:59:31.442Z,100948.99
2023-01-13T15:01:58.480Z,100950.80
2023-01-13T15:04:27.759Z,100952.55
2023-01-13T15:06:57.003Z,100947.34
2023-01-13T15:09:27.849Z,100943.48
2023-01-13T15:11:56.355Z,100943.25
2023-01-13T15:14:31.278Z,100947.52
2023-01-13T15:16:58.053Z,100943.81
2023-01-13T15:19:24.660Z,100952.27
2023-01-13T15:21:51.381Z,100952.66
2023-01-13T15:24:17.939Z,100952.50
2023-01-13T15:26:44.544Z,100956.11
2023-01-13T15:29:17.624Z,100956.23
2023-01-13T15:31:44.365Z,100949.73
2023-01-13T15:34:11.168Z,100951.09
2023-01-13T15:36:37.971Z,100951.56
2023-01-13T15:39:04.762Z,100951.17
2023-01-13T15:41:50.252Z,100948.19
2023-01-13T15:44:36.528Z,100946.05
2023-01-13T15:47:07.428Z,100949.84
2023-01-13T15:49:39.326Z,100950.30
2023-01-13T15:52:23.560Z,100951.79
2023-01-13T15:54:51.970Z,100954.01
2023-01-13T15:57:34.190Z,100957.85
2023-01-13T16:00:05.167Z,100958.58
2023-01-13T16:02:33.729Z,100963.40
2023-01-13T16:05:00.359Z,100968.04
2023-01-13T16:07:27.114Z,100972.27
2023-01-13T16:09:54.454Z,100981.81
2023-01-13T16:12:21.110Z,100984.38
2023-01-13T16:14:47.721Z,100995.05
2023-01-13T16:17:21.139Z,100997.31
2023-01-13T16:19:48.138Z,100989.70
2023-01-13T16:22:15.927Z,100982.38
2023-01-13T16:24:43.305Z,100989.64
2023-01-13T16:27:19.776Z,100985.42
2023-01-13T16:29:47.883Z,100983.23
2023-01-13T16:32:14.795Z,100986.10
2023-01-13T16:34:41.731Z,100985.98
2023-01-13T16:37:19.488Z,100990.66
2023-01-13T16:39:46.168Z,100994.95
2023-01-13T16:42:12.822Z,100998.30
2023-01-13T16:44:39.484Z,101001.81
2023-01-13T16:47:07.037Z,101007.67
2023-01-13T16:49:34.635Z,101004.73
2023-01-13T16:52:01.295Z,101003.05
2023-01-13T16:54:27.868Z,101013.03
2023-01-13T16:56:54.456Z,101012.38
2023-01-13T16:59:21.561Z,101011.34
2023-01-13T17:01:48.507Z,101006.86
2023-01-13T17:04:17.893Z,101014.91
2023-01-13T17:07:00.429Z,101024.33
2023-01-13T17:09:29.099Z,101029.49
2023-01-13T17:11:56.551Z,101023.92
2023-01-13T17:14:24.464Z,101020.86
2023-01-13T17:16:59.290Z,101027.54
2023-01-13T17:19:26.135Z,101031.66
2023-01-13T17:21:52.802Z,101039.68
2023-01-13T17:24:19.722Z,101045.82
2023-01-13T17:26:49.613Z,101042.63
2023-01-13T17:29:19.471Z,101048.56
2023-01-13T17:31:46.204Z,101048.38
2023-01-13T17:34:13.068Z,101040.71
2023-01-13T17:36:39.887Z,101039.02
2023-01-13T17:39:06.611Z,101037.39
2023-01-13T17:41:33.201Z,101038.59
2023-01-13T17:43:59.816Z,101045.45
2023-01-13T17:46:26.590Z,101054.17
2023-01-13T17:48:54.022Z,101050.73
2023-01-13T17:51:25.055Z,101043.19
2023-01-13T17:53:53.555Z,101045.91
2023-01-13T17:56:20.212Z,101049.05
2023-01-13T17:58:46.882Z,101051.91
2023-01-13T18:01:19.131Z,101052.56
2023-01-13T18:03:46.239Z,101057.55
2023-01-13T18:06:22.471Z,101055.81
2023-01-13T18:08:50.009Z,101056.23
2023-01-13T18:11:19.704Z,101056.73
2023-01-13T18:13:49.757Z,101057.17
2023-01-13T18:16:18.685Z,101065.48
2023-01-13T18:18:47.989Z,101066.25
2023-01-13T18:21:40.278Z,101068.14
2023-01-13T18:24:30.953Z,101070.34
2023-01-13T18:27:17.089Z,101069.75
2023-01-13T18:29:44.645Z,101066.55
2023-01-13T18:32:12.030Z,101069.39
2023-01-13T18:34:39.373Z,101067.89
2023-01-13T18:37:07.603Z,101068.89
2023-01-13T18:39:37.372Z,101072.14
2023-01-13T18:42:23.950Z,101068.91
2023-01-13T18:44:50.976Z,101070.73
2023-01-13T18:47:19.136Z,101083.66
2023-01-13T18:49:46.530Z,101084.14
2023-01-13T18:52:13.524Z,101084.44
2023-01-13T18:54:40.195Z,101089.66
2023-01-13T18:57:06.874Z,101090.39
2023-01-13T18:59:34.692Z,101091.73
2023-01-13T19:02:02.997Z,101095.28
2023-01-13T19:04:29.742Z,101096.32
2023-01-13T19:07:00.847Z,101099.88
2023-01-13T19:09:29.356Z,101104.73
2023-01-13T19:11:57.823Z,101108.64
2023-01-13T19:14:35.818Z,101103.49
2023-01-13T19:17:09.309Z,101106.42
2023-01-13T19:19:44.256Z,101111.23
2023-01-13T19:22:13.167Z,101114.48
2023-01-13T19:24:43.667Z,101115.48
2023-01-13T19:27:14.165Z,101117.22
2023-01-13T19:29:46.059Z,101115.88
2023-01-13T19:32:22.852Z,101110.34
2023-01-13T19:34:51.171Z,101112.48
2023-01-13T19:37:18.879Z,101117.45
2023-01-13T19:39:45.766Z,101114.27
2023-01-13T19:42:32.399Z,101115.25
2023-01-13T19:45:17.887Z,101117.34
2023-01-13T19:47:45.882Z,101119.61
2023-01-13T19:50:13.822Z,101115.10
2023-01-13T19:52:42.520Z,101117.79
2023-01-13T19:55:11.706Z,101113.84
2023-01-13T19:57:41.207Z,101117.17
2023-01-13T20:00:10.327Z,101120.27
2023-01-13T20:02:45.060Z,101117.06
2023-01-13T20:05:12.915Z,101118.24
2023-01-13T20:07:40.155Z,101118.85
2023-01-13T20:10:07.560Z,101123.94
2023-01-13T20:12:34.278Z,101122.46
2023-01-13T20:15:00.979Z,101113.01
2023-01-13T20:17:27.885Z,101110.34
2023-01-13T20:19:55.185Z,101118.79
2023-01-13T20:22:21.889Z,101120.85
2023-01-13T20:24:52.114Z,101115.43
2023-01-13T20:27:19.077Z,101113.59
2023-01-13T20:29:45.786Z,101120.16
2023-01-13T20:32:14.443Z,101116.35
2023-01-13T20:34:41.478Z,101115.13
2023-01-13T20:37:10.279Z,101122.11
2023-01-13T20:39:39.320Z,101121.44
2023-01-13T20:42:27.322Z,101119.59
2023-01-13T20:44:55.582Z,101119.21
2023-01-13T20:47:24.460Z,101118.02
2023-01-13T20:49:53.045Z,101117.69
2023-01-13T20:52:20.550Z,101116.94
2023-01-13T20:54:47.395Z,101114.48
2023-01-13T20:57:16.157Z,101112.24
2023-01-13T20:59:46.695Z,101109.38
2023-01-13T21:02:18.771Z,101107.45
2023-01-13T21:04:46.301Z,101111.03
2023-01-13T21:07:15.150Z,101112.67
2023-01-13T21:09:43.900Z,101115.62
2023-01-13T21:12:33.449Z,101113.59
2023-01-13T21:15:20.380Z,101109.80
2023-01-13T21:18:12.521Z,101102.27
2023-01-13T21:20:41.887Z,101110.98
2023-01-13T21:23:13.199Z,101114.61
2023-01-13T21:25:40.512Z,101119.84
2023-01-13T21:28:10.395Z,101122.71
2023-01-13T21:30:39.015Z,101121.31
2023-01-13T21:33:06.602Z,101121.65
2023-01-13T21:35:34.034Z,101122.86
2023-01-13T21:38:00.772Z,101130.83
2023-01-13T21:40:27.496Z,101136.98
2023-01-13T21:43:12.996Z,101141.45
2023-01-13T21:45:58.575Z,101141.57
2023-01-13T21:48:25.277Z,101141.55
2023-01-13T21:50:51.932Z,101137.05
2023-01-13T21:53:18.679Z,101140.50
2023-01-13T21:55:50.663Z,101140.95
2023-01-13T21:58:17.329Z,101139.65
2023-01-13T22:00:45.353Z,101139.41
2023-01-13T22:03:14.023Z,101144.27
2023-01-13T22:05:41.014Z,101151.42
2023-01-13T22:08:07.726Z,101154.50
2023-01-13T22:10:35.030Z,101158.50
2023-01-13T22:13:22.740Z,101157.59
2023-01-13T22:15:49.787Z,101157.04
2023-01-13T22:18:18.227Z,101158.00
2023-01-13T22:20:45.667Z,101159.88
2023-01-13T22:23:12.568Z,101164.66
2023-01-13T22:25:39.360Z,101164.98
2023-01-13T22:28:08.635Z,101163.67
2023-01-13T22:30:35.198Z,101166.04
2023-01-13T22:33:01.841Z,101166.48
2023-01-13T22:35:28.479Z,101172.59
2023-01-13T22:37:55.220Z,101174.33
2023-01-13T22:40:21.870Z,101173.92
2023-01-13T22:42:48.559Z,101174.04
2023-01-13T22:45:15.338Z,101168.39
2023-01-13T22:47:42.307Z,101170.62
2023-01-13T22:50:10.318Z,101172.27
2023-01-13T22:52:37.033Z,101172.26
2023-01-13T22:55:04.397Z,101166.16
2023-01-13T22:57:46.463Z,101166.54
2023-01-13T23:00:15.080Z,101162.54
2023-01-13T23:02:41.967Z,101157.10
2023-01-13T23:05:08.884Z,101152.91
2023-01-13T23:07:36.173Z,101158.71
2023-01-13T23:10:03.964Z,101164.65
2023-01-13T23:12:30.919Z,101165.73
2023-01-13T23:14:57.491Z,101166.60
2023-01-13T23:17:24.122Z,101175.30
2023-01-13T23:19:50.749Z,101181.89
2023-01-13T23:22:17.333Z,101180.93
2023-01-13T23:24:44.083Z,101176.02
2023-01-13T23:27:12.856Z,101180.44
2023-01-13T23:29:39.622Z,101183.55
2023-01-13T23:32:06.235Z,101188.92
2023-01-13T23:34:32.886Z,101199.34
2023-01-13T23:36:59.548Z,101202.17
2023-01-13T23:39:26.226Z,101200.83
2023-01-13T23:41:52.819Z,101205.11
2023-01-13T23:44:19.439Z,101208.53
2023-01-13T23:46:46.283Z,101207.17
2023-01-13T23:49:12.878Z,101209.30
2023-01-13T23:51:39.632Z,101212.80
2023-01-13T23:54:06.264Z,101218.45
2023-01-13T23:56:33.980Z,101219.88
2023-01-13T23:59:00.660Z,101224.85
